Terminal Aerodrome Forecast
Issued by NWS Wilmington, OH

Current Version | Previous Version | Text Only | Print | Product List | Glossary Off
Versions: 1 2 3 4 5 6 7 8 9 10 11 12 13 14 15 16 17 18 19 20 21 22 23 24 25 26

000
FTUS41 KILN 261720
TAFCVG
TAF
KCVG 261720Z 2618/2724 21010KT P6SM VCTS BKN040CB
      TEMPO 2619/2621 4SM TSRA BR OVC025CB
     FM262100 21008KT P6SM SCT040 SCT100 BKN250
     FM270100 18005KT P6SM SCT040 BKN250
     FM271600 19010KT P6SM BKN040=

USA.gov is the U.S. government's official web portal to all federal, state and local government web resources and services.